createdAt,value
2022-08-05T00:00:19.282Z,79.40
2022-08-05T00:03:06.801Z,79.54
2022-08-05T00:06:04.755Z,79.45
2022-08-05T00:08:34.910Z,79.45
2022-08-05T00:11:23.741Z,79.69
2022-08-05T00:13:55.835Z,79.85
2022-08-05T00:16:36.497Z,79.91
2022-08-05T00:19:11.605Z,79.93
2022-08-05T00:21:39.518Z,80.11
2022-08-05T00:24:16.197Z,80.15
2022-08-05T00:26:51.808Z,80.38
2022-08-05T00:29:25.823Z,80.44
2022-08-05T00:32:12.703Z,80.65
2022-08-05T00:35:05.326Z,80.81
2022-08-05T00:37:50.823Z,80.86
2022-08-05T00:40:28.002Z,80.85
2022-08-05T00:43:02.382Z,80.93
2022-08-05T00:45:42.905Z,81.11
2022-08-05T00:48:14.883Z,81.31
2022-08-05T00:50:46.022Z,81.30
2022-08-05T00:54:01.162Z,81.45
2022-08-05T00:56:05.577Z,81.60
2022-08-05T00:58:36.306Z,81.85
2022-08-05T01:01:08.493Z,82.06
2022-08-05T01:03:39.479Z,82.29
2022-08-05T01:06:14.054Z,82.51
2022-08-05T01:08:44.604Z,82.70
2022-08-05T01:11:36.833Z,82.89
2022-08-05T01:14:15.259Z,83.12
2022-08-05T01:16:52.511Z,83.33
2022-08-05T01:20:00.815Z,83.58
2022-08-05T01:22:54.199Z,83.98
2022-08-05T01:25:53.519Z,84.24
2022-08-05T01:28:43.861Z,84.39
2022-08-05T01:31:16.107Z,84.60
2022-08-05T01:34:02.899Z,84.99
2022-08-05T01:36:42.117Z,85.34
2022-08-05T01:39:45.589Z,85.68
2022-08-05T01:42:06.311Z,86.00
2022-08-05T01:44:39.388Z,86.11
2022-08-05T01:47:10.178Z,86.37
2022-08-05T01:50:02.309Z,86.68
2022-08-05T01:52:34.566Z,87.05
2022-08-05T01:55:07.255Z,87.27
2022-08-05T01:58:12.974Z,87.44
2022-08-05T02:00:27.605Z,87.95
2022-08-05T02:03:06.648Z,88.16
2022-08-05T02:05:46.706Z,88.46
2022-08-05T02:08:16.291Z,88.53
2022-08-05T02:11:05.486Z,88.84
2022-08-05T02:13:54.676Z,89.16
2022-08-05T02:16:30.312Z,89.53
2022-08-05T02:19:07.599Z,89.65
2022-08-05T02:21:43.476Z,89.94
2022-08-05T02:24:19.831Z,90.21
2022-08-05T02:27:00.069Z,90.37
2022-08-05T02:29:59.152Z,90.75
2022-08-05T02:32:31.870Z,91.13
2022-08-05T02:35:13.704Z,91.38
2022-08-05T02:37:47.875Z,91.73
2022-08-05T02:40:24.353Z,92.07
2022-08-05T02:42:55.986Z,91.84
2022-08-05T02:45:25.417Z,91.98
2022-08-05T02:48:07.723Z,92.13
2022-08-05T02:50:44.078Z,92.31
2022-08-05T02:53:18.782Z,92.56
2022-08-05T02:55:59.556Z,92.57
2022-08-05T02:58:30.200Z,92.74
2022-08-05T03:01:02.526Z,92.64
2022-08-05T03:03:33.923Z,92.88
2022-08-05T03:06:55.389Z,93.04
2022-08-05T03:09:15.875Z,93.19
2022-08-05T03:11:56.273Z,93.20
2022-08-05T03:14:25.375Z,93.28
2022-08-05T03:16:54.266Z,93.44
2022-08-05T03:19:33.099Z,93.65
2022-08-05T03:22:04.892Z,93.93
2022-08-05T03:24:33.713Z,94.12
2022-08-05T03:27:02.782Z,94.27
2022-08-05T03:29:45.551Z,93.99
2022-08-05T03:32:19.631Z,94.02
2022-08-05T03:34:50.387Z,94.17
2022-08-05T03:37:20.995Z,94.24
2022-08-05T03:40:01.744Z,94.18
2022-08-05T03:42:32.352Z,94.08
2022-08-05T03:45:01.725Z,93.90
2022-08-05T03:47:35.257Z,93.37
2022-08-05T03:50:03.809Z,93.11
2022-08-05T03:54:59.234Z,92.82
2022-08-05T03:56:09.496Z,92.64
2022-08-05T03:58:28.920Z,92.14
2022-08-05T04:01:00.359Z,91.64
2022-08-05T04:03:29.459Z,91.39
2022-08-05T04:05:59.080Z,91.17
2022-08-05T04:08:36.720Z,91.16
2022-08-05T04:11:08.394Z,91.10
2022-08-05T04:13:51.328Z,90.97
2022-08-05T04:16:25.093Z,90.73
2022-08-05T04:18:54.800Z,90.61
2022-08-05T04:22:05.233Z,90.25
2022-08-05T04:24:19.443Z,89.68
2022-08-05T04:26:50.579Z,89.12
2022-08-05T04:29:18.473Z,88.70
2022-08-05T04:31:48.507Z,88.38
2022-08-05T04:34:32.485Z,87.59
2022-08-05T04:37:01.239Z,87.01
2022-08-05T04:39:32.371Z,86.64
2022-08-05T04:42:03.621Z,86.12
2022-08-05T04:44:31.396Z,85.59
2022-08-05T04:46:59.560Z,84.72
2022-08-05T04:49:39.105Z,84.37
2022-08-05T04:52:16.333Z,83.89
2022-08-05T04:54:44.185Z,83.47
2022-08-05T04:57:11.871Z,82.85
2022-08-05T04:59:40.535Z,82.00
2022-08-05T05:02:37.044Z,81.28
2022-08-05T05:05:02.344Z,80.56
2022-08-05T05:07:35.370Z,80.06
2022-08-05T05:10:06.345Z,79.69
2022-08-05T05:12:34.513Z,78.95
2022-08-05T05:15:06.106Z,78.54
2022-08-05T05:17:56.194Z,77.59
2022-08-05T05:20:28.288Z,77.15
2022-08-05T05:22:58.246Z,76.70
2022-08-05T05:25:33.059Z,76.36
2022-08-05T05:28:09.445Z,75.21
2022-08-05T05:30:38.199Z,75.16
2022-08-05T05:33:15.823Z,75.04
2022-08-05T05:35:48.360Z,74.43
2022-08-05T05:38:27.098Z,73.45
2022-08-05T05:40:56.926Z,72.56
2022-08-05T05:43:54.626Z,71.66
2022-08-05T05:46:17.441Z,70.96
2022-08-05T05:48:48.505Z,70.49
2022-08-05T05:51:24.381Z,70.31
2022-08-05T05:53:58.942Z,69.64
2022-08-05T05:56:32.984Z,68.98
2022-08-05T05:59:07.521Z,68.07
2022-08-05T06:01:39.053Z,67.64
2022-08-05T06:04:13.045Z,67.17
2022-08-05T06:06:47.283Z,67.00
2022-08-05T06:09:24.845Z,66.13
2022-08-05T06:11:59.646Z,64.50
2022-08-05T06:14:31.480Z,64.42
2022-08-05T06:17:02.100Z,64.39
2022-08-05T06:19:56.938Z,63.71
2022-08-05T06:22:33.323Z,63.36
2022-08-05T06:25:25.012Z,62.94
2022-08-05T06:28:11.644Z,62.87
2022-08-05T06:30:38.222Z,62.73
2022-08-05T06:33:09.931Z,62.81
2022-08-05T06:36:03.643Z,62.75
2022-08-05T06:38:35.651Z,62.33
2022-08-05T06:41:05.588Z,61.89
2022-08-05T06:43:59.154Z,61.42
2022-08-05T06:46:30.301Z,61.04
2022-08-05T06:49:01.217Z,60.47
2022-08-05T06:51:30.924Z,60.41
2022-08-05T06:54:02.012Z,60.23
2022-08-05T06:56:34.387Z,59.70
2022-08-05T06:59:09.332Z,58.89
2022-08-05T07:01:40.665Z,58.58
2022-08-05T07:04:10.739Z,58.18
2022-08-05T07:06:41.734Z,57.18
2022-08-05T07:09:09.454Z,56.66
2022-08-05T07:11:40.015Z,55.87
2022-08-05T07:14:29.591Z,56.02
2022-08-05T07:18:01.835Z,55.27
2022-08-05T07:22:42.360Z,48.60
2022-08-05T07:25:54.237Z,43.80
2022-08-05T07:28:04.252Z,38.07
2022-08-05T07:30:38.377Z,32.78
2022-08-05T07:33:10.595Z,26.93
2022-08-05T07:36:03.942Z,25.61
2022-08-05T07:38:42.953Z,23.53
2022-08-05T07:42:08.921Z,21.76
2022-08-05T07:44:14.258Z,20.56
2022-08-05T07:46:49.661Z,19.19
2022-08-05T07:49:18.983Z,18.11
2022-08-05T07:51:54.038Z,17.70
2022-08-05T07:54:30.867Z,17.33
2022-08-05T07:57:17.890Z,16.84
2022-08-05T07:59:53.482Z,16.55
2022-08-05T08:02:26.695Z,16.33
2022-08-05T08:04:58.977Z,16.56
2022-08-05T08:07:28.466Z,15.88
2022-08-05T08:09:56.732Z,15.80
2022-08-05T08:12:35.287Z,15.90
2022-08-05T08:15:15.707Z,14.99
2022-08-05T08:17:52.664Z,14.79
2022-08-05T08:20:44.495Z,15.21
2022-08-05T08:24:03.268Z,15.69
2022-08-05T08:26:02.809Z,15.52
2022-08-05T08:28:35.580Z,15.40
2022-08-05T08:31:08.383Z,14.96
2022-08-05T08:33:38.321Z,14.97
2022-08-05T08:38:56.808Z,14.85
2022-08-05T08:41:50.656Z,15.11
2022-08-05T08:45:20.172Z,14.90
2022-08-05T08:47:22.180Z,14.63
2022-08-05T08:50:07.600Z,14.88
2022-08-05T08:53:01.731Z,14.89
2022-08-05T08:56:03.202Z,14.40
2022-08-05T08:58:37.181Z,14.49
2022-08-05T09:01:15.755Z,15.23
2022-08-05T09:03:54.411Z,14.82
2022-08-05T09:06:29.600Z,14.95
2022-08-05T09:09:02.145Z,15.17
2022-08-05T09:11:52.170Z,15.19
2022-08-05T09:14:57.115Z,14.57
2022-08-05T09:17:40.039Z,14.98
2022-08-05T09:20:05.437Z,14.63
2022-08-05T09:23:05.585Z,15.39
2022-08-05T09:26:03.234Z,15.31
2022-08-05T09:28:36.447Z,15.55
2022-08-05T09:31:18.178Z,15.13
2022-08-05T09:34:03.089Z,14.78
2022-08-05T09:36:56.257Z,15.13
2022-08-05T09:39:45.171Z,15.70
2022-08-05T09:42:24.219Z,15.24
2022-08-05T09:45:03.276Z,15.60
2022-08-05T09:47:55.079Z,15.79
2022-08-05T09:50:38.564Z,16.05
2022-08-05T09:53:22.969Z,16.17
2022-08-05T09:56:04.573Z,16.16
2022-08-05T09:58:32.914Z,16.59
2022-08-05T10:01:14.667Z,16.68
2022-08-05T10:04:00.690Z,17.16
2022-08-05T10:06:29.229Z,17.27
2022-08-05T10:09:25.087Z,17.19
2022-08-05T10:12:18.810Z,18.09
2022-08-05T10:15:21.749Z,18.54
2022-08-05T10:18:22.851Z,19.12
2022-08-05T10:20:59.822Z,19.01
2022-08-05T10:23:59.706Z,19.92
2022-08-05T10:26:32.735Z,21.88
2022-08-05T10:29:02.550Z,21.88
2022-08-05T10:32:54.909Z,25.71
2022-08-05T10:34:19.742Z,27.11
2022-08-05T10:36:54.037Z,27.58
2022-08-05T10:40:03.699Z,28.43
2022-08-05T10:42:33.837Z,29.72
2022-08-05T10:45:20.932Z,30.42
2022-08-05T10:48:29.948Z,31.10
2022-08-05T10:50:59.440Z,32.37
2022-08-05T10:53:51.238Z,32.39
2022-08-05T10:56:25.967Z,32.32
2022-08-05T10:58:53.909Z,33.21
2022-08-05T11:01:55.336Z,33.26
2022-08-05T11:04:26.124Z,33.05
2022-08-05T11:06:57.659Z,32.69
2022-08-05T11:09:39.080Z,33.34
2022-08-05T11:12:45.426Z,33.41
2022-08-05T11:15:20.401Z,33.43
2022-08-05T11:17:59.654Z,33.70
2022-08-05T11:20:47.346Z,33.59
2022-08-05T11:24:04.751Z,33.49
2022-08-05T11:26:33.056Z,33.54
2022-08-05T11:29:12.538Z,33.96
2022-08-05T11:31:56.231Z,34.00
2022-08-05T11:34:51.051Z,33.64
2022-08-05T11:38:26.348Z,34.44
2022-08-05T11:41:35.426Z,33.74
2022-08-05T11:44:04.682Z,33.92
2022-08-05T11:46:37.881Z,34.01
2022-08-05T11:49:25.395Z,33.46
2022-08-05T11:51:54.017Z,34.23
2022-08-05T11:54:33.175Z,33.66
2022-08-05T11:57:08.446Z,33.12
2022-08-05T11:59:52.230Z,33.38
2022-08-05T12:02:31.805Z,32.99
2022-08-05T12:05:06.936Z,32.65
2022-08-05T12:08:09.333Z,33.40
2022-08-05T12:10:39.076Z,33.17
2022-08-05T12:13:28.203Z,33.00
2022-08-05T12:16:14.600Z,32.98
2022-08-05T12:18:52.739Z,32.43
2022-08-05T12:21:29.881Z,32.22
2022-08-05T12:24:17.586Z,31.68
2022-08-05T12:26:50.138Z,31.87
2022-08-05T12:29:23.047Z,31.91
2022-08-05T12:32:02.150Z,32.87
2022-08-05T12:34:33.586Z,33.08
2022-08-05T12:37:30.136Z,32.40
2022-08-05T12:40:03.632Z,32.58
2022-08-05T12:42:39.616Z,33.06
2022-08-05T12:45:09.849Z,33.07
2022-08-05T12:47:38.590Z,32.38
2022-08-05T12:50:26.454Z,32.53
2022-08-05T12:52:59.893Z,31.72
2022-08-05T12:55:32.545Z,31.95
2022-08-05T12:58:39.149Z,32.21
2022-08-05T13:02:01.158Z,32.40
2022-08-05T13:03:41.924Z,32.99
2022-08-05T13:06:17.399Z,33.29
2022-08-05T13:08:52.316Z,33.52
2022-08-05T13:12:01.873Z,33.42
2022-08-05T13:14:24.925Z,33.32
2022-08-05T13:17:20.654Z,33.60
2022-08-05T13:20:19.161Z,33.14
2022-08-05T13:22:52.196Z,33.06
2022-08-05T13:25:21.909Z,33.10
2022-08-05T13:27:51.221Z,33.43
2022-08-05T13:30:33.512Z,33.25
2022-08-05T13:33:04.167Z,33.25
2022-08-05T13:35:47.406Z,33.45
2022-08-05T13:38:30.386Z,34.06
2022-08-05T13:41:00.259Z,34.24
2022-08-05T13:43:45.511Z,34.66
2022-08-05T13:46:16.538Z,34.75
2022-08-05T13:49:04.115Z,35.06
2022-08-05T13:51:36.436Z,35.12
2022-08-05T13:54:12.729Z,35.27
2022-08-05T13:56:51.005Z,35.33
2022-08-05T13:59:25.062Z,35.36
2022-08-05T14:01:57.784Z,35.41
2022-08-05T14:04:51.342Z,34.85
2022-08-05T14:07:25.399Z,34.26
2022-08-05T14:10:28.411Z,34.62
2022-08-05T14:12:57.770Z,34.71
2022-08-05T14:16:04.602Z,34.80
2022-08-05T14:18:17.591Z,34.51
2022-08-05T14:20:48.508Z,33.96
2022-08-05T14:23:24.663Z,33.81
2022-08-05T14:25:54.606Z,34.09
2022-08-05T14:28:30.927Z,33.88
2022-08-05T14:31:00.438Z,33.33
2022-08-05T14:33:57.059Z,33.03
2022-08-05T14:36:21.501Z,33.22
2022-08-05T14:38:51.229Z,33.43
2022-08-05T14:41:19.184Z,33.66
2022-08-05T14:43:53.805Z,33.46
2022-08-05T14:46:31.614Z,33.63
2022-08-05T14:49:07.317Z,33.47
2022-08-05T14:51:37.915Z,33.04
2022-08-05T14:54:28.269Z,32.97
2022-08-05T14:56:55.942Z,33.38
2022-08-05T14:59:23.578Z,33.58
2022-08-05T15:01:51.358Z,33.12
2022-08-05T15:04:22.741Z,33.35
2022-08-05T15:06:53.714Z,33.89
2022-08-05T15:09:51.447Z,34.17
2022-08-05T15:12:11.476Z,34.07
2022-08-05T15:14:49.481Z,33.97
2022-08-05T15:17:46.405Z,34.15
2022-08-05T15:20:17.119Z,34.10
2022-08-05T15:22:54.061Z,34.03
2022-08-05T15:25:41.103Z,34.29
2022-08-05T15:28:14.965Z,34.45
2022-08-05T15:30:45.634Z,33.96
2022-08-05T15:33:56.591Z,34.30
2022-08-05T15:36:04.691Z,34.05
2022-08-05T15:38:40.775Z,34.24
2022-08-05T15:41:21.998Z,34.54
2022-08-05T15:43:52.023Z,34.82
2022-08-05T15:46:24.024Z,34.92
2022-08-05T15:48:58.585Z,35.09
2022-08-05T15:52:09.705Z,35.03
2022-08-05T15:54:17.930Z,35.32
2022-08-05T15:56:45.528Z,35.94
2022-08-05T15:59:21.897Z,35.98
2022-08-05T16:01:52.551Z,36.46
2022-08-05T16:04:25.663Z,36.40
2022-08-05T16:06:56.840Z,36.46
2022-08-05T16:09:26.419Z,35.45
2022-08-05T16:11:54.369Z,36.04
2022-08-05T16:14:23.110Z,36.41
2022-08-05T16:16:50.871Z,35.98
2022-08-05T16:19:25.569Z,35.89
2022-08-05T16:22:07.190Z,35.87
2022-08-05T16:24:41.507Z,36.65
2022-08-05T16:27:19.484Z,36.98
2022-08-05T16:30:08.418Z,36.88
2022-08-05T16:32:54.637Z,36.34
2022-08-05T16:35:27.591Z,37.15
2022-08-05T16:38:15.524Z,36.99
2022-08-05T16:40:47.772Z,36.67
2022-08-05T16:43:23.714Z,37.50
2022-08-05T16:46:03.581Z,37.63
2022-08-05T16:48:38.530Z,37.72
2022-08-05T16:51:09.844Z,38.11
2022-08-05T16:54:02.866Z,38.56
2022-08-05T16:56:30.820Z,38.71
2022-08-05T16:59:00.908Z,39.35
2022-08-05T17:01:53.576Z,39.81
2022-08-05T17:04:26.633Z,39.92
2022-08-05T17:07:01.150Z,40.08
2022-08-05T17:09:31.030Z,40.51
2022-08-05T17:12:18.359Z,40.80
2022-08-05T17:14:50.684Z,41.13
2022-08-05T17:17:19.663Z,41.28
2022-08-05T17:19:53.898Z,41.19
2022-08-05T17:22:25.955Z,41.34
2022-08-05T17:25:00.107Z,41.49
2022-08-05T17:27:33.549Z,42.38
2022-08-05T17:30:03.815Z,42.54
2022-08-05T17:32:31.950Z,42.79
2022-08-05T17:35:01.714Z,43.16
2022-08-05T17:37:41.814Z,43.29
2022-08-05T17:40:15.929Z,43.41
2022-08-05T17:42:51.035Z,43.61
2022-08-05T17:45:22.425Z,44.29
2022-08-05T17:47:56.202Z,44.87
2022-08-05T17:50:30.447Z,45.10
2022-08-05T17:53:00.392Z,45.62
2022-08-05T17:55:38.126Z,46.39
2022-08-05T17:58:13.627Z,46.98
2022-08-05T18:00:47.606Z,47.09
2022-08-05T18:03:56.576Z,47.76
2022-08-05T18:06:11.377Z,48.28
2022-08-05T18:08:45.072Z,48.91
2022-08-05T18:11:24.669Z,49.16
2022-08-05T18:13:57.512Z,49.89
2022-08-05T18:16:27.694Z,50.18
2022-08-05T18:18:55.340Z,50.86
2022-08-05T18:21:26.320Z,51.69
2022-08-05T18:23:56.204Z,51.88
2022-08-05T18:26:27.721Z,52.46
2022-08-05T18:28:58.219Z,53.00
2022-08-05T18:31:32.987Z,53.60
2022-08-05T18:34:05.971Z,54.06
2022-08-05T18:36:35.452Z,54.48
2022-08-05T18:39:22.194Z,54.90
2022-08-05T18:42:04.779Z,55.51
2022-08-05T18:44:49.202Z,56.26
2022-08-05T18:47:26.432Z,57.05
2022-08-05T18:50:15.673Z,58.21
2022-08-05T18:52:51.127Z,58.60
2022-08-05T18:55:21.486Z,59.42
2022-08-05T18:57:53.875Z,59.86
2022-08-05T19:00:28.670Z,60.30
2022-08-05T19:03:04.040Z,61.23
2022-08-05T19:06:11.758Z,61.90
2022-08-05T19:08:30.458Z,62.66
2022-08-05T19:10:59.671Z,63.03
2022-08-05T19:13:35.947Z,63.25
2022-08-05T19:16:25.116Z,63.45
2022-08-05T19:18:53.953Z,63.85
2022-08-05T19:21:25.214Z,64.37
2022-08-05T19:24:06.524Z,65.05
2022-08-05T19:26:54.460Z,65.51
2022-08-05T19:29:35.749Z,65.33
2022-08-05T19:32:11.134Z,65.60
2022-08-05T19:34:39.707Z,65.83
2022-08-05T19:37:08.342Z,65.92
2022-08-05T19:39:45.697Z,65.95
2022-08-05T19:42:34.991Z,66.17
2022-08-05T19:45:05.975Z,66.35
2022-08-05T19:47:37.449Z,66.42
2022-08-05T19:50:07.788Z,66.60
2022-08-05T19:52:38.951Z,66.85
2022-08-05T19:56:11.356Z,67.01
2022-08-05T19:58:19.454Z,66.92
2022-08-05T20:00:43.210Z,66.76
2022-08-05T20:03:11.400Z,66.76
2022-08-05T20:05:50.343Z,66.69
2022-08-05T20:08:20.346Z,66.68
2022-08-05T20:10:49.592Z,66.83
2022-08-05T20:13:18.305Z,67.11
2022-08-05T20:15:57.928Z,67.05
2022-08-05T20:18:32.876Z,67.29
2022-08-05T20:21:04.622Z,67.62
2022-08-05T20:23:40.384Z,67.74
2022-08-05T20:26:24.857Z,68.09
2022-08-05T20:28:56.246Z,68.47
2022-08-05T20:31:36.880Z,68.61
2022-08-05T20:34:11.595Z,68.65
2022-08-05T20:36:43.249Z,68.65
2022-08-05T20:39:13.052Z,68.79
2022-08-05T20:41:43.370Z,69.05
2022-08-05T20:44:17.118Z,69.14
2022-08-05T20:46:48.170Z,69.18
2022-08-05T20:49:18.406Z,69.14
2022-08-05T20:51:53.682Z,69.13
2022-08-05T20:54:55.193Z,69.32
2022-08-05T20:57:24.821Z,69.55
2022-08-05T21:00:20.960Z,69.85
2022-08-05T21:02:57.757Z,70.14
2022-08-05T21:05:25.652Z,70.24
2022-08-05T21:08:06.314Z,70.32
2022-08-05T21:10:34.196Z,70.37
2022-08-05T21:13:12.199Z,70.56
2022-08-05T21:15:51.073Z,70.52
2022-08-05T21:18:20.574Z,70.73
2022-08-05T21:20:51.318Z,70.70
2022-08-05T21:23:18.882Z,70.68
2022-08-05T21:25:46.590Z,70.54
2022-08-05T21:28:18.471Z,70.85
2022-08-05T21:30:46.419Z,70.67
2022-08-05T21:33:22.048Z,70.72
2022-08-05T21:35:58.499Z,70.89
2022-08-05T21:38:27.803Z,70.95
2022-08-05T21:40:55.903Z,70.88
2022-08-05T21:43:24.154Z,70.89
2022-08-05T21:45:57.727Z,71.10
2022-08-05T21:48:29.195Z,71.25
2022-08-05T21:50:59.459Z,71.33
2022-08-05T21:53:27.898Z,71.53
2022-08-05T21:56:06.030Z,71.58
2022-08-05T21:58:48.448Z,71.84
2022-08-05T22:01:26.763Z,71.79
2022-08-05T22:03:54.779Z,72.17
2022-08-05T22:06:35.548Z,71.99
2022-08-05T22:09:14.549Z,72.15
2022-08-05T22:11:46.932Z,72.28
2022-08-05T22:14:31.341Z,72.27
2022-08-05T22:17:05.042Z,72.26
2022-08-05T22:20:02.938Z,72.47
2022-08-05T22:22:27.590Z,72.45
2022-08-05T22:25:18.213Z,72.72
2022-08-05T22:28:10.746Z,72.83
2022-08-05T22:30:55.914Z,72.91
2022-08-05T22:33:58.635Z,73.13
2022-08-05T22:36:15.041Z,73.58
2022-08-05T22:38:48.133Z,73.79
2022-08-05T22:41:26.363Z,73.97
2022-08-05T22:44:08.634Z,74.26
2022-08-05T22:46:40.275Z,74.45
2022-08-05T22:50:17.576Z,74.36
2022-08-05T22:52:04.644Z,74.56
2022-08-05T22:54:36.551Z,74.60
2022-08-05T22:57:06.260Z,74.50
2022-08-05T22:59:45.130Z,74.53
2022-08-05T23:02:13.779Z,74.82
2022-08-05T23:04:51.680Z,74.98
2022-08-05T23:07:22.226Z,75.05
2022-08-05T23:09:57.897Z,75.13
2022-08-05T23:12:32.546Z,75.03
2022-08-05T23:15:03.416Z,75.10
2022-08-05T23:17:37.975Z,75.23
2022-08-05T23:20:21.231Z,75.26
2022-08-05T23:22:55.662Z,75.56
2022-08-05T23:25:52.394Z,75.55
2022-08-05T23:28:13.189Z,75.63
2022-08-05T23:30:44.104Z,75.77
2022-08-05T23:33:26.434Z,75.94
2022-08-05T23:36:10.827Z,76.22
2022-08-05T23:38:42.770Z,76.37
2022-08-05T23:41:11.116Z,76.75
2022-08-05T23:44:05.029Z,76.85
2022-08-05T23:46:26.869Z,76.71
2022-08-05T23:49:01.228Z,76.90
2022-08-05T23:51:53.605Z,76.92
2022-08-05T23:54:36.714Z,77.08
2022-08-05T23:57:07.221Z,77.39
